sensor_id;sensor_type;location;lat;lon;timestamp;pressure;altitude;pressure_sealevel;temperature;humidity
9855;BME280;4966;48.112;9.282;2023-05-10T00:01:21;94129.44;;;14.72;100.00
9855;BME280;4966;48.112;9.282;2023-05-10T00:03:46;94128.41;;;14.46;100.00
9855;BME280;4966;48.112;9.282;2023-05-10T00:06:11;94128.44;;;14.50;100.00
9855;BME280;4966;48.112;9.282;2023-05-10T00:08:37;94121.91;;;14.24;100.00
9855;BME280;4966;48.112;9.282;2023-05-10T00:11:02;94125.88;;;14.31;100.00
9855;BME280;4966;48.112;9.282;2023-05-10T00:13:28;94131.09;;;14.43;100.00
9855;BME280;4966;48.112;9.282;2023-05-10T00:15:53;94122.63;;;14.18;100.00
9855;BME280;4966;48.112;9.282;2023-05-10T00:18:18;94120.53;;;14.08;100.00
9855;BME280;4966;48.112;9.282;2023-05-10T00:20:44;94118.84;;;14.30;100.00
9855;BME280;4966;48.112;9.282;2023-05-10T00:23:11;94118.22;;;14.10;100.00
9855;BME280;4966;48.112;9.282;2023-05-10T00:25:36;94119.16;;;14.24;100.00
9855;BME280;4966;48.112;9.282;2023-05-10T00:28:02;94125.63;;;14.06;100.00
9855;BME280;4966;48.112;9.282;2023-05-10T00:30:27;94124.69;;;14.28;100.00
9855;BME280;4966;48.112;9.282;2023-05-10T00:32:53;94126.56;;;14.20;100.00
9855;BME280;4966;48.112;9.282;2023-05-10T00:35:18;94126.50;;;14.13;100.00
9855;BME280;4966;48.112;9.282;2023-05-10T00:37:44;94126.50;;;14.13;100.00
9855;BME280;4966;48.112;9.282;2023-05-10T00:40:10;94131.50;;;14.08;100.00
9855;BME280;4966;48.112;9.282;2023-05-10T00:42:36;94127.94;;;14.03;100.00
9855;BME280;4966;48.112;9.282;2023-05-10T00:45:01;94137.78;;;14.12;100.00
9855;BME280;4966;48.112;9.282;2023-05-10T00:47:27;94144.44;;;14.11;100.00
9855;BME280;4966;48.112;9.282;2023-05-10T00:49:52;94137.59;;;14.28;100.00
9855;BME280;4966;48.112;9.282;2023-05-10T00:52:18;94141.88;;;13.91;100.00
9855;BME280;4966;48.112;9.282;2023-05-10T00:54:44;94139.34;;;14.09;100.00
9855;BME280;4966;48.112;9.282;2023-05-10T00:57:09;94139.00;;;14.14;100.00
9855;BME280;4966;48.112;9.282;2023-05-10T00:59:35;94140.88;;;14.10;100.00
9855;BME280;4966;48.112;9.282;2023-05-10T01:02:01;94146.50;;;14.21;100.00
9855;BME280;4966;48.112;9.282;2023-05-10T01:04:27;94144.13;;;14.19;100.00
9855;BME280;4966;48.112;9.282;2023-05-10T01:06:53;94149.75;;;14.34;100.00
9855;BME280;4966;48.112;9.282;2023-05-10T01:09:20;94150.94;;;14.33;100.00
9855;BME280;4966;48.112;9.282;2023-05-10T01:11:46;94156.97;;;13.81;100.00
9855;BME280;4966;48.112;9.282;2023-05-10T01:14:11;94157.63;;;14.01;100.00
9855;BME280;4966;48.112;9.282;2023-05-10T01:16:38;94151.72;;;13.69;100.00
9855;BME280;4966;48.112;9.282;2023-05-10T01:19:28;94157.06;;;13.58;100.00
9855;BME280;4966;48.112;9.282;2023-05-10T01:27:47;94162.66;;;13.16;99.38
9855;BME280;4966;48.112;9.282;2023-05-10T01:33:30;94176.25;;;13.35;98.88
9855;BME280;4966;48.112;9.282;2023-05-10T01:36:08;94170.84;;;13.69;96.90
9855;BME280;4966;48.112;9.282;2023-05-10T01:38:44;94185.22;;;13.63;97.75
9855;BME280;4966;48.112;9.282;2023-05-10T01:41:24;94187.03;;;13.51;98.71
9855;BME280;4966;48.112;9.282;2023-05-10T01:46:38;94185.34;;;13.70;97.39
9855;BME280;4966;48.112;9.282;2023-05-10T01:49:10;94191.69;;;13.77;96.81
9855;BME280;4966;48.112;9.282;2023-05-10T01:51:45;94194.59;;;13.92;95.99
9855;BME280;4966;48.112;9.282;2023-05-10T01:54:13;94189.59;;;13.97;95.81
9855;BME280;4966;48.112;9.282;2023-05-10T01:56:40;94185.75;;;14.02;94.97
9855;BME280;4966;48.112;9.282;2023-05-10T01:59:12;94190.75;;;13.96;95.34
9855;BME280;4966;48.112;9.282;2023-05-10T02:01:39;94193.28;;;14.12;94.69
9855;BME280;4966;48.112;9.282;2023-05-10T02:04:07;94197.06;;;14.34;94.32
9855;BME280;4966;48.112;9.282;2023-05-10T02:06:34;94200.50;;;14.28;94.17
9855;BME280;4966;48.112;9.282;2023-05-10T02:09:01;94212.84;;;14.14;94.66
9855;BME280;4966;48.112;9.282;2023-05-10T02:11:28;94214.53;;;13.92;95.09
9855;BME280;4966;48.112;9.282;2023-05-10T02:13:55;94207.75;;;14.13;94.85
9855;BME280;4966;48.112;9.282;2023-05-10T02:16:24;94205.66;;;14.02;94.94
9855;BME280;4966;48.112;9.282;2023-05-10T02:18:51;94209.03;;;13.89;94.78
9855;BME280;4966;48.112;9.282;2023-05-10T02:21:19;94210.50;;;13.82;94.56
9855;BME280;4966;48.112;9.282;2023-05-10T02:23:46;94216.69;;;13.79;94.38
9855;BME280;4966;48.112;9.282;2023-05-10T02:26:13;94215.66;;;13.61;95.11
9855;BME280;4966;48.112;9.282;2023-05-10T02:28:40;94213.53;;;13.77;93.78
9855;BME280;4966;48.112;9.282;2023-05-10T02:31:07;94211.75;;;13.62;93.86
9855;BME280;4966;48.112;9.282;2023-05-10T02:33:35;94207.50;;;13.38;95.17
9855;BME280;4966;48.112;9.282;2023-05-10T02:36:02;94213.66;;;13.31;94.58
9855;BME280;4966;48.112;9.282;2023-05-10T02:38:30;94217.34;;;13.19;94.58
9855;BME280;4966;48.112;9.282;2023-05-10T02:40:56;94216.44;;;13.35;93.48
9855;BME280;4966;48.112;9.282;2023-05-10T02:43:22;94220.75;;;13.13;93.32
9855;BME280;4966;48.112;9.282;2023-05-10T02:45:48;94217.53;;;13.30;92.86
9855;BME280;4966;48.112;9.282;2023-05-10T02:48:14;94217.09;;;13.28;92.91
9855;BME280;4966;48.112;9.282;2023-05-10T02:50:43;94219.56;;;13.14;93.88
9855;BME280;4966;48.112;9.282;2023-05-10T02:53:11;94218.75;;;13.10;93.92
9855;BME280;4966;48.112;9.282;2023-05-10T02:55:40;94219.41;;;13.03;94.36
9855;BME280;4966;48.112;9.282;2023-05-10T02:58:09;94224.22;;;13.10;93.73
9855;BME280;4966;48.112;9.282;2023-05-10T03:00:34;94221.63;;;13.20;93.00
9855;BME280;4966;48.112;9.282;2023-05-10T03:03:01;94231.31;;;12.91;94.71
9855;BME280;4966;48.112;9.282;2023-05-10T03:05:26;94231.06;;;13.00;94.42
9855;BME280;4966;48.112;9.282;2023-05-10T03:07:52;94231.47;;;13.02;94.31
9855;BME280;4966;48.112;9.282;2023-05-10T03:10:18;94236.81;;;12.95;94.74
9855;BME280;4966;48.112;9.282;2023-05-10T03:16:09;94231.19;;;12.84;94.86
9855;BME280;4966;48.112;9.282;2023-05-10T03:19:01;94228.00;;;12.82;95.30
9855;BME280;4966;48.112;9.282;2023-05-10T03:21:31;94231.59;;;13.09;93.69
9855;BME280;4966;48.112;9.282;2023-05-10T03:24:07;94238.69;;;13.14;93.39
9855;BME280;4966;48.112;9.282;2023-05-10T03:26:33;94231.13;;;13.04;93.93
9855;BME280;4966;48.112;9.282;2023-05-10T03:29:00;94235.66;;;12.96;94.81
9855;BME280;4966;48.112;9.282;2023-05-10T03:31:26;94236.56;;;13.27;93.27
9855;BME280;4966;48.112;9.282;2023-05-10T03:33:52;94244.88;;;13.11;94.72
9855;BME280;4966;48.112;9.282;2023-05-10T03:36:18;94238.09;;;13.24;93.12
9855;BME280;4966;48.112;9.282;2023-05-10T03:38:44;94241.06;;;13.15;93.89
9855;BME280;4966;48.112;9.282;2023-05-10T03:41:10;94237.66;;;12.99;95.01
9855;BME280;4966;48.112;9.282;2023-05-10T03:43:35;94239.72;;;13.06;94.74
9855;BME280;4966;48.112;9.282;2023-05-10T03:46:03;94241.44;;;12.91;95.20
9855;BME280;4966;48.112;9.282;2023-05-10T03:48:28;94233.19;;;13.10;94.02
9855;BME280;4966;48.112;9.282;2023-05-10T03:50:53;94239.31;;;13.04;94.88
9855;BME280;4966;48.112;9.282;2023-05-10T03:53:19;94244.94;;;12.91;94.95
9855;BME280;4966;48.112;9.282;2023-05-10T03:55:44;94241.13;;;12.96;95.29
9855;BME280;4966;48.112;9.282;2023-05-10T03:58:13;94248.47;;;13.15;93.72
9855;BME280;4966;48.112;9.282;2023-05-10T04:00:38;94250.97;;;13.01;95.84
9855;BME280;4966;48.112;9.282;2023-05-10T04:03:12;94243.13;;;12.99;95.48
9855;BME280;4966;48.112;9.282;2023-05-10T04:05:37;94244.41;;;13.05;95.27
9855;BME280;4966;48.112;9.282;2023-05-10T04:08:03;94248.69;;;12.83;96.71
9855;BME280;4966;48.112;9.282;2023-05-10T04:10:29;94249.88;;;13.05;95.48
9855;BME280;4966;48.112;9.282;2023-05-10T04:12:55;94250.78;;;13.13;94.78
9855;BME280;4966;48.112;9.282;2023-05-10T04:15:20;94245.97;;;13.06;94.94
9855;BME280;4966;48.112;9.282;2023-05-10T04:17:45;94258.72;;;12.98;95.35
9855;BME280;4966;48.112;9.282;2023-05-10T04:20:11;94256.56;;;13.08;94.96
9855;BME280;4966;48.112;9.282;2023-05-10T04:22:37;94257.22;;;13.01;95.23
9855;BME280;4966;48.112;9.282;2023-05-10T04:25:03;94252.84;;;12.96;95.78
9855;BME280;4966;48.112;9.282;2023-05-10T04:27:29;94255.25;;;13.02;96.34
9855;BME280;4966;48.112;9.282;2023-05-10T04:29:55;94256.25;;;13.13;95.33
9855;BME280;4966;48.112;9.282;2023-05-10T04:32:20;94259.97;;;13.05;95.80
9855;BME280;4966;48.112;9.282;2023-05-10T04:34:46;94257.50;;;13.19;94.48
9855;BME280;4966;48.112;9.282;2023-05-10T04:37:11;94265.94;;;13.10;95.09
9855;BME280;4966;48.112;9.282;2023-05-10T04:39:36;94263.19;;;13.30;94.27
9855;BME280;4966;48.112;9.282;2023-05-10T04:42:05;94265.75;;;13.23;94.23
9855;BME280;4966;48.112;9.282;2023-05-10T04:44:31;94268.91;;;13.48;93.48
9855;BME280;4966;48.112;9.282;2023-05-10T04:46:56;94264.75;;;13.31;94.75
9855;BME280;4966;48.112;9.282;2023-05-10T04:49:22;94267.59;;;13.38;93.71
9855;BME280;4966;48.112;9.282;2023-05-10T04:51:47;94268.44;;;13.42;93.64
9855;BME280;4966;48.112;9.282;2023-05-10T04:54:12;94269.97;;;13.39;93.96
9855;BME280;4966;48.112;9.282;2023-05-10T04:56:38;94277.66;;;13.57;93.00
9855;BME280;4966;48.112;9.282;2023-05-10T04:59:03;94271.47;;;13.60;92.06
9855;BME280;4966;48.112;9.282;2023-05-10T05:01:29;94280.81;;;13.59;92.23
9855;BME280;4966;48.112;9.282;2023-05-10T05:03:54;94286.47;;;13.70;91.86
9855;BME280;4966;48.112;9.282;2023-05-10T05:06:19;94278.31;;;13.73;91.92
9855;BME280;4966;48.112;9.282;2023-05-10T05:08:46;94279.03;;;13.70;91.72
9855;BME280;4966;48.112;9.282;2023-05-10T05:11:12;94269.75;;;13.75;91.50
9855;BME280;4966;48.112;9.282;2023-05-10T05:13:37;94281.56;;;13.56;91.53
9855;BME280;4966;48.112;9.282;2023-05-10T05:16:02;94286.75;;;13.65;91.09
9855;BME280;4966;48.112;9.282;2023-05-10T05:18:28;94284.06;;;13.42;91.75
9855;BME280;4966;48.112;9.282;2023-05-10T05:20:53;94288.78;;;13.45;91.92
9855;BME280;4966;48.112;9.282;2023-05-10T05:23:19;94289.56;;;13.45;92.41
9855;BME280;4966;48.112;9.282;2023-05-10T05:25:46;94295.34;;;13.63;92.09
9855;BME280;4966;48.112;9.282;2023-05-10T05:28:11;94291.94;;;13.47;93.12
9855;BME280;4966;48.112;9.282;2023-05-10T05:30:37;94296.91;;;13.64;92.60
9855;BME280;4966;48.112;9.282;2023-05-10T05:33:02;94299.16;;;13.58;92.41
9855;BME280;4966;48.112;9.282;2023-05-10T05:35:28;94295.78;;;13.42;93.20
9855;BME280;4966;48.112;9.282;2023-05-10T05:37:53;94305.81;;;13.34;94.39
9855;BME280;4966;48.112;9.282;2023-05-10T05:40:18;94305.91;;;13.42;94.23
9855;BME280;4966;48.112;9.282;2023-05-10T05:42:45;94296.19;;;13.67;92.87
9855;BME280;4966;48.112;9.282;2023-05-10T05:45:10;94301.94;;;13.62;93.91
9855;BME280;4966;48.112;9.282;2023-05-10T05:47:38;94306.81;;;13.72;93.22
9855;BME280;4966;48.112;9.282;2023-05-10T05:50:04;94294.03;;;13.80;93.02
9855;BME280;4966;48.112;9.282;2023-05-10T05:52:30;94308.72;;;13.72;93.31
9855;BME280;4966;48.112;9.282;2023-05-10T05:54:56;94300.97;;;14.00;92.65
9855;BME280;4966;48.112;9.282;2023-05-10T05:57:21;94305.28;;;14.01;91.47
9855;BME280;4966;48.112;9.282;2023-05-10T05:59:46;94307.13;;;14.20;91.12
9855;BME280;4966;48.112;9.282;2023-05-10T06:02:12;94305.00;;;14.10;92.15
9855;BME280;4966;48.112;9.282;2023-05-10T06:04:37;94303.88;;;14.15;91.50
9855;BME280;4966;48.112;9.282;2023-05-10T06:07:03;94307.94;;;14.24;90.71
9855;BME280;4966;48.112;9.282;2023-05-10T06:09:28;94312.88;;;14.42;90.11
9855;BME280;4966;48.112;9.282;2023-05-10T06:11:53;94318.28;;;14.38;90.62
9855;BME280;4966;48.112;9.282;2023-05-10T06:14:23;94318.00;;;13.90;92.58
9855;BME280;4966;48.112;9.282;2023-05-10T06:16:48;94320.31;;;14.15;92.05
9855;BME280;4966;48.112;9.282;2023-05-10T06:19:13;94325.59;;;14.27;91.21
9855;BME280;4966;48.112;9.282;2023-05-10T06:21:39;94321.72;;;14.05;92.39
9855;BME280;4966;48.112;9.282;2023-05-10T06:24:05;94325.94;;;13.99;92.54
9855;BME280;4966;48.112;9.282;2023-05-10T06:26:31;94328.09;;;14.39;90.33
9855;BME280;4966;48.112;9.282;2023-05-10T06:28:57;94333.88;;;14.61;90.30
9855;BME280;4966;48.112;9.282;2023-05-10T06:31:22;94326.06;;;14.63;88.90
9855;BME280;4966;48.112;9.282;2023-05-10T06:33:48;94327.44;;;14.80;88.78
9855;BME280;4966;48.112;9.282;2023-05-10T06:36:13;94327.03;;;14.78;85.61
9855;BME280;4966;48.112;9.282;2023-05-10T06:38:38;94327.03;;;15.15;84.42
9855;BME280;4966;48.112;9.282;2023-05-10T06:41:04;94339.19;;;15.18;83.30
9855;BME280;4966;48.112;9.282;2023-05-10T06:43:29;94333.53;;;15.37;82.54
9855;BME280;4966;48.112;9.282;2023-05-10T06:45:55;94338.56;;;14.94;82.26
9855;BME280;4966;48.112;9.282;2023-05-10T06:48:20;94346.69;;;15.21;81.75
9855;BME280;4966;48.112;9.282;2023-05-10T06:50:46;94342.66;;;15.11;81.82
9855;BME280;4966;48.112;9.282;2023-05-10T06:53:11;94344.88;;;15.36;79.47
9855;BME280;4966;48.112;9.282;2023-05-10T06:55:37;94350.56;;;15.16;82.96
9855;BME280;4966;48.112;9.282;2023-05-10T06:58:02;94353.78;;;14.92;83.69
9855;BME280;4966;48.112;9.282;2023-05-10T07:00:28;94354.09;;;15.20;81.76
9855;BME280;4966;48.112;9.282;2023-05-10T07:02:53;94351.84;;;15.29;81.52
9855;BME280;4966;48.112;9.282;2023-05-10T07:05:18;94355.84;;;15.39;81.61
9855;BME280;4966;48.112;9.282;2023-05-10T07:07:44;94345.25;;;15.34;81.13
9855;BME280;4966;48.112;9.282;2023-05-10T07:10:10;94353.56;;;14.74;83.00
9855;BME280;4966;48.112;9.282;2023-05-10T07:12:35;94350.13;;;15.14;82.22
9855;BME280;4966;48.112;9.282;2023-05-10T07:15:01;94352.53;;;15.19;81.72
9855;BME280;4966;48.112;9.282;2023-05-10T07:17:26;94367.34;;;15.15;81.74
9855;BME280;4966;48.112;9.282;2023-05-10T07:19:51;94358.19;;;15.00;82.63
9855;BME280;4966;48.112;9.282;2023-05-10T07:22:17;94357.09;;;15.08;83.15
9855;BME280;4966;48.112;9.282;2023-05-10T07:24:42;94362.31;;;14.86;83.29
9855;BME280;4966;48.112;9.282;2023-05-10T07:27:08;94353.84;;;14.99;83.23
9855;BME280;4966;48.112;9.282;2023-05-10T07:29:34;94364.25;;;15.16;83.79
9855;BME280;4966;48.112;9.282;2023-05-10T07:32:00;94364.88;;;15.40;83.29
9855;BME280;4966;48.112;9.282;2023-05-10T07:34:25;94349.38;;;15.58;83.24
9855;BME280;4966;48.112;9.282;2023-05-10T07:36:51;94362.66;;;14.81;84.65
9855;BME280;4966;48.112;9.282;2023-05-10T07:39:16;94359.13;;;15.15;82.11
9855;BME280;4966;48.112;9.282;2023-05-10T07:41:42;94358.88;;;15.27;82.12
9855;BME280;4966;48.112;9.282;2023-05-10T07:44:07;94355.97;;;15.13;83.32
9855;BME280;4966;48.112;9.282;2023-05-10T07:46:32;94357.88;;;15.46;82.03
9855;BME280;4966;48.112;9.282;2023-05-10T07:48:58;94359.06;;;15.86;79.13
9855;BME280;4966;48.112;9.282;2023-05-10T07:51:23;94364.22;;;15.53;80.11
9855;BME280;4966;48.112;9.282;2023-05-10T07:53:49;94358.59;;;15.39;80.24
9855;BME280;4966;48.112;9.282;2023-05-10T07:56:28;94359.41;;;15.40;80.26
9855;BME280;4966;48.112;9.282;2023-05-10T07:59:00;94357.88;;;15.83;79.58
9855;BME280;4966;48.112;9.282;2023-05-10T08:01:30;94357.31;;;15.67;78.05
9855;BME280;4966;48.112;9.282;2023-05-10T08:03:56;94359.25;;;15.25;81.78
9855;BME280;4966;48.112;9.282;2023-05-10T08:06:21;94364.66;;;14.84;83.74
9855;BME280;4966;48.112;9.282;2023-05-10T08:08:47;94364.97;;;14.79;84.66
9855;BME280;4966;48.112;9.282;2023-05-10T08:11:18;94369.84;;;14.93;85.99
9855;BME280;4966;48.112;9.282;2023-05-10T08:13:44;94360.84;;;14.62;86.96
9855;BME280;4966;48.112;9.282;2023-05-10T08:16:10;94363.81;;;14.23;91.09
9855;BME280;4966;48.112;9.282;2023-05-10T08:18:36;94366.66;;;14.31;91.69
9855;BME280;4966;48.112;9.282;2023-05-10T08:21:02;94370.03;;;14.51;90.39
9855;BME280;4966;48.112;9.282;2023-05-10T08:23:27;94369.75;;;14.02;94.62
9855;BME280;4966;48.112;9.282;2023-05-10T08:25:53;94368.00;;;14.17;94.15
9855;BME280;4966;48.112;9.282;2023-05-10T08:28:18;94374.22;;;14.41;93.10
9855;BME280;4966;48.112;9.282;2023-05-10T08:30:43;94374.22;;;14.14;92.95
9855;BME280;4966;48.112;9.282;2023-05-10T08:33:09;94374.13;;;14.34;94.50
9855;BME280;4966;48.112;9.282;2023-05-10T08:35:34;94377.66;;;14.61;93.67
9855;BME280;4966;48.112;9.282;2023-05-10T08:38:00;94377.19;;;14.55;91.47
9855;BME280;4966;48.112;9.282;2023-05-10T08:40:26;94378.34;;;14.54;88.37
9855;BME280;4966;48.112;9.282;2023-05-10T08:43:09;94385.50;;;13.86;89.36
9855;BME280;4966;48.112;9.282;2023-05-10T08:45:40;94393.00;;;13.89;90.48
9855;BME280;4966;48.112;9.282;2023-05-10T08:48:06;94392.63;;;13.45;87.38
9855;BME280;4966;48.112;9.282;2023-05-10T08:50:36;94394.66;;;13.28;90.63
9855;BME280;4966;48.112;9.282;2023-05-10T08:53:04;94401.72;;;13.29;93.14
9855;BME280;4966;48.112;9.282;2023-05-10T08:55:32;94394.91;;;13.23;90.13
9855;BME280;4966;48.112;9.282;2023-05-10T08:57:59;94400.91;;;13.29;92.82
9855;BME280;4966;48.112;9.282;2023-05-10T09:00:24;94405.91;;;13.69;90.90
9855;BME280;4966;48.112;9.282;2023-05-10T09:02:50;94384.94;;;14.00;90.43
9855;BME280;4966;48.112;9.282;2023-05-10T09:05:16;94394.09;;;13.85;89.57
9855;BME280;4966;48.112;9.282;2023-05-10T09:07:42;94403.38;;;13.57;91.01
9855;BME280;4966;48.112;9.282;2023-05-10T09:10:08;94412.00;;;13.59;93.39
9855;BME280;4966;48.112;9.282;2023-05-10T09:12:35;94407.75;;;13.61;93.31
9855;BME280;4966;48.112;9.282;2023-05-10T09:15:01;94411.13;;;13.55;94.44
9855;BME280;4966;48.112;9.282;2023-05-10T09:17:28;94409.44;;;13.47;93.69
9855;BME280;4966;48.112;9.282;2023-05-10T09:19:58;94405.78;;;13.39;92.96
9855;BME280;4966;48.112;9.282;2023-05-10T09:22:24;94409.22;;;13.55;92.21
9855;BME280;4966;48.112;9.282;2023-05-10T09:25:12;94411.53;;;13.53;91.56
9855;BME280;4966;48.112;9.282;2023-05-10T09:27:39;94412.19;;;13.70;91.18
9855;BME280;4966;48.112;9.282;2023-05-10T09:30:06;94415.06;;;13.34;92.67
9855;BME280;4966;48.112;9.282;2023-05-10T09:32:40;94423.28;;;12.95;93.24
9855;BME280;4966;48.112;9.282;2023-05-10T09:35:14;94423.09;;;13.47;91.08
9855;BME280;4966;48.112;9.282;2023-05-10T09:37:41;94425.19;;;13.76;93.64
9855;BME280;4966;48.112;9.282;2023-05-10T09:40:08;94424.13;;;12.99;89.43
9855;BME280;4966;48.112;9.282;2023-05-10T09:42:36;94426.00;;;12.95;85.51
9855;BME280;4966;48.112;9.282;2023-05-10T09:45:05;94419.66;;;12.91;87.01
9855;BME280;4966;48.112;9.282;2023-05-10T09:47:32;94425.13;;;13.30;87.52
9855;BME280;4966;48.112;9.282;2023-05-10T09:49:59;94423.78;;;13.63;88.42
9855;BME280;4966;48.112;9.282;2023-05-10T09:52:29;94424.91;;;13.81;85.92
9855;BME280;4966;48.112;9.282;2023-05-10T09:54:55;94428.81;;;13.61;84.24
9855;BME280;4966;48.112;9.282;2023-05-10T09:57:21;94426.44;;;13.59;87.59
9855;BME280;4966;48.112;9.282;2023-05-10T09:59:47;94421.38;;;12.99;88.92
9855;BME280;4966;48.112;9.282;2023-05-10T10:02:13;94431.16;;;13.39;88.87
9855;BME280;4966;48.112;9.282;2023-05-10T10:04:42;94433.75;;;13.13;94.27
9855;BME280;4966;48.112;9.282;2023-05-10T10:07:07;94427.69;;;13.43;92.61
9855;BME280;4966;48.112;9.282;2023-05-10T10:09:34;94429.25;;;13.86;90.49
9855;BME280;4966;48.112;9.282;2023-05-10T10:12:02;94428.84;;;13.84;91.38
9855;BME280;4966;48.112;9.282;2023-05-10T10:14:29;94429.13;;;13.79;90.90
9855;BME280;4966;48.112;9.282;2023-05-10T10:16:54;94429.59;;;14.08;91.29
9855;BME280;4966;48.112;9.282;2023-05-10T10:19:21;94418.56;;;14.00;92.55
9855;BME280;4966;48.112;9.282;2023-05-10T10:21:47;94419.97;;;14.40;89.96
9855;BME280;4966;48.112;9.282;2023-05-10T10:24:13;94422.38;;;14.72;91.24
9855;BME280;4966;48.112;9.282;2023-05-10T10:26:38;94417.28;;;15.01;89.55
9855;BME280;4966;48.112;9.282;2023-05-10T10:29:23;94422.47;;;15.43;88.80
9855;BME280;4966;48.112;9.282;2023-05-10T10:35:01;94416.31;;;14.56;91.31
9855;BME280;4966;48.112;9.282;2023-05-10T10:37:44;94420.25;;;14.58;91.41
9855;BME280;4966;48.112;9.282;2023-05-10T10:40:42;94419.28;;;14.47;91.61
9855;BME280;4966;48.112;9.282;2023-05-10T10:43:25;94420.75;;;14.98;90.59
9855;BME280;4966;48.112;9.282;2023-05-10T10:51:23;94416.97;;;14.22;90.77
9855;BME280;4966;48.112;9.282;2023-05-10T10:53:49;94422.59;;;14.10;93.86
9855;BME280;4966;48.112;9.282;2023-05-10T10:56:14;94415.41;;;13.75;94.16
9855;BME280;4966;48.112;9.282;2023-05-10T10:58:41;94420.97;;;13.59;96.05
9855;BME280;4966;48.112;9.282;2023-05-10T11:01:17;94423.13;;;13.93;94.94
9855;BME280;4966;48.112;9.282;2023-05-10T11:04:17;94419.50;;;14.35;94.74
9855;BME280;4966;48.112;9.282;2023-05-10T11:06:43;94423.16;;;14.46;90.54
9855;BME280;4966;48.112;9.282;2023-05-10T11:09:11;94423.56;;;14.71;88.57
9855;BME280;4966;48.112;9.282;2023-05-10T11:11:50;94416.59;;;14.77;86.72
9855;BME280;4966;48.112;9.282;2023-05-10T11:14:19;94415.38;;;14.75;84.84
9855;BME280;4966;48.112;9.282;2023-05-10T11:16:45;94425.63;;;14.81;85.16
9855;BME280;4966;48.112;9.282;2023-05-10T11:19:12;94418.03;;;14.98;84.45
9855;BME280;4966;48.112;9.282;2023-05-10T11:24:15;94420.09;;;15.42;81.43
9855;BME280;4966;48.112;9.282;2023-05-10T11:26:41;94414.41;;;14.90;86.37
9855;BME280;4966;48.112;9.282;2023-05-10T11:29:07;94414.47;;;15.65;83.87
9855;BME280;4966;48.112;9.282;2023-05-10T11:31:32;94416.91;;;15.70;84.20
9855;BME280;4966;48.112;9.282;2023-05-10T11:33:59;94414.47;;;15.27;83.92
9855;BME280;4966;48.112;9.282;2023-05-10T11:36:28;94418.81;;;15.66;85.45
9855;BME280;4966;48.112;9.282;2023-05-10T11:38:54;94420.38;;;15.67;82.32
9855;BME280;4966;48.112;9.282;2023-05-10T11:41:21;94417.13;;;15.54;86.00
9855;BME280;4966;48.112;9.282;2023-05-10T11:43:52;94410.53;;;16.00;85.20
9855;BME280;4966;48.112;9.282;2023-05-10T11:46:19;94408.78;;;16.84;77.70
9855;BME280;4966;48.112;9.282;2023-05-10T11:48:47;94415.59;;;17.15;78.73
9855;BME280;4966;48.112;9.282;2023-05-10T11:51:15;94416.91;;;16.73;77.58
9855;BME280;4966;48.112;9.282;2023-05-10T11:53:40;94412.28;;;16.81;76.20
9855;BME280;4966;48.112;9.282;2023-05-10T11:56:09;94412.06;;;17.18;76.74
9855;BME280;4966;48.112;9.282;2023-05-10T11:58:36;94400.78;;;17.52;75.65
9855;BME280;4966;48.112;9.282;2023-05-10T12:01:04;94409.22;;;16.97;77.73
9855;BME280;4966;48.112;9.282;2023-05-10T12:03:30;94402.13;;;16.89;75.91
9855;BME280;4966;48.112;9.282;2023-05-10T12:05:56;94419.56;;;17.21;74.46
9855;BME280;4966;48.112;9.282;2023-05-10T12:08:23;94423.03;;;16.45;76.98
9855;BME280;4966;48.112;9.282;2023-05-10T12:10:49;94433.06;;;15.79;79.89
9855;BME280;4966;48.112;9.282;2023-05-10T12:13:15;94436.34;;;15.58;80.48
9855;BME280;4966;48.112;9.282;2023-05-10T12:15:41;94465.47;;;14.25;88.17
9855;BME280;4966;48.112;9.282;2023-05-10T12:18:11;94471.69;;;12.98;83.13
9855;BME280;4966;48.112;9.282;2023-05-10T12:20:37;94478.03;;;12.67;83.84
9855;BME280;4966;48.112;9.282;2023-05-10T12:23:02;94462.34;;;11.81;80.87
9855;BME280;4966;48.112;9.282;2023-05-10T12:25:36;94465.06;;;11.37;88.17
9855;BME280;4966;48.112;9.282;2023-05-10T12:28:07;94469.75;;;11.09;89.53
9855;BME280;4966;48.112;9.282;2023-05-10T12:30:34;94469.38;;;11.38;90.59
9855;BME280;4966;48.112;9.282;2023-05-10T12:33:13;94476.22;;;11.76;92.35
9855;BME280;4966;48.112;9.282;2023-05-10T12:35:55;94469.66;;;12.09;91.42
9855;BME280;4966;48.112;9.282;2023-05-10T12:38:35;94470.09;;;12.43;89.09
9855;BME280;4966;48.112;9.282;2023-05-10T12:41:04;94467.13;;;12.67;88.43
9855;BME280;4966;48.112;9.282;2023-05-10T12:43:30;94466.72;;;12.85;86.03
9855;BME280;4966;48.112;9.282;2023-05-10T12:45:56;94475.94;;;12.96;88.02
9855;BME280;4966;48.112;9.282;2023-05-10T12:48:22;94466.16;;;13.14;87.83
9855;BME280;4966;48.112;9.282;2023-05-10T12:50:47;94463.06;;;13.16;87.35
9855;BME280;4966;48.112;9.282;2023-05-10T12:53:13;94465.03;;;13.35;85.86
9855;BME280;4966;48.112;9.282;2023-05-10T12:55:40;94459.25;;;13.59;85.50
9855;BME280;4966;48.112;9.282;2023-05-10T12:58:06;94457.06;;;13.69;86.55
9855;BME280;4966;48.112;9.282;2023-05-10T13:00:31;94450.81;;;13.68;87.05
9855;BME280;4966;48.112;9.282;2023-05-10T13:02:56;94456.91;;;13.81;86.57
9855;BME280;4966;48.112;9.282;2023-05-10T13:05:22;94456.31;;;13.91;83.72
9855;BME280;4966;48.112;9.282;2023-05-10T13:07:47;94447.50;;;14.01;83.32
9855;BME280;4966;48.112;9.282;2023-05-10T13:10:12;94444.66;;;14.44;82.77
9855;BME280;4966;48.112;9.282;2023-05-10T13:12:37;94445.88;;;14.73;84.76
9855;BME280;4966;48.112;9.282;2023-05-10T13:15:03;94444.75;;;15.08;84.67
9855;BME280;4966;48.112;9.282;2023-05-10T13:17:29;94453.13;;;15.52;83.79
9855;BME280;4966;48.112;9.282;2023-05-10T13:19:54;94448.19;;;16.06;75.75
9855;BME280;4966;48.112;9.282;2023-05-10T13:22:20;94446.44;;;16.28;79.10
9855;BME280;4966;48.112;9.282;2023-05-10T13:24:45;94446.59;;;16.50;71.75
9855;BME280;4966;48.112;9.282;2023-05-10T13:27:11;94446.81;;;16.82;72.04
9855;BME280;4966;48.112;9.282;2023-05-10T13:29:36;94440.69;;;16.51;74.87
9855;BME280;4966;48.112;9.282;2023-05-10T13:32:01;94445.75;;;17.01;73.97
9855;BME280;4966;48.112;9.282;2023-05-10T13:34:27;94442.38;;;17.40;69.36
9855;BME280;4966;48.112;9.282;2023-05-10T13:36:53;94439.34;;;17.77;70.26
9855;BME280;4966;48.112;9.282;2023-05-10T13:39:20;94443.00;;;18.10;68.81
9855;BME280;4966;48.112;9.282;2023-05-10T13:41:45;94439.06;;;18.40;60.31
9855;BME280;4966;48.112;9.282;2023-05-10T13:44:12;94439.44;;;18.63;61.75
9855;BME280;4966;48.112;9.282;2023-05-10T13:46:38;94428.00;;;18.86;62.60